createdAt,value
2018-09-29T00:03:02.757Z,101305.91
2018-09-29T00:08:06.294Z,101305.43
2018-09-29T00:13:09.784Z,101311.89
2018-09-29T00:18:13.194Z,101319.73
2018-09-29T00:23:16.641Z,101329.84
2018-09-29T00:28:20.068Z,101325.73
2018-09-29T00:33:23.496Z,101329.03
2018-09-29T00:38:26.914Z,101340.70
2018-09-29T00:43:30.369Z,101334.72
2018-09-29T00:48:33.945Z,101334.62
2018-09-29T00:53:37.362Z,101326.94
2018-09-29T00:58:40.848Z,101333.69
2018-09-29T01:03:44.264Z,101335.17
2018-09-29T01:08:47.682Z,101348.06
2018-09-29T01:13:51.184Z,101346.61
2018-09-29T01:18:54.605Z,101349.62
2018-09-29T01:23:58.030Z,101347.61
2018-09-29T01:29:01.493Z,101351.16
2018-09-29T01:34:04.934Z,101347.87
2018-09-29T01:39:09.715Z,101350.00
2018-09-29T01:44:13.154Z,101356.12
2018-09-29T01:49:16.677Z,101358.13
2018-09-29T01:54:20.124Z,101357.89
2018-09-29T01:59:23.565Z,101359.56
2018-09-29T02:04:27.056Z,101359.33
2018-09-29T02:09:30.509Z,101344.16
2018-09-29T02:14:35.660Z,101348.97
2018-09-29T02:19:39.131Z,101339.15
2018-09-29T02:24:42.584Z,101348.91
2018-09-29T02:29:46.037Z,101341.84
2018-09-29T02:34:49.566Z,101343.42
2018-09-29T02:39:53.016Z,101356.59
2018-09-29T02:44:58.368Z,101354.47
2018-09-29T02:50:01.806Z,101359.13
2018-09-29T02:55:06.288Z,101362.39
2018-09-29T03:00:09.727Z,101360.80
2018-09-29T03:05:13.157Z,101353.25
2018-09-29T03:10:16.592Z,101348.92
2018-09-29T03:15:20.056Z,101353.97
2018-09-29T03:20:23.602Z,101362.19
2018-09-29T03:25:27.049Z,101371.31
2018-09-29T03:30:30.535Z,101375.87
2018-09-29T03:35:33.966Z,101379.61
2018-09-29T03:40:37.480Z,101385.53
2018-09-29T03:45:40.904Z,101393.78
2018-09-29T03:50:44.323Z,101407.33
2018-09-29T03:55:47.797Z,101403.42
2018-09-29T04:00:51.263Z,101405.72
2018-09-29T04:05:54.700Z,101408.55
2018-09-29T04:10:58.212Z,101408.25
2018-09-29T04:16:01.767Z,101416.41
2018-09-29T04:21:05.269Z,101414.25
2018-09-29T04:26:08.714Z,101422.41
2018-09-29T04:31:12.159Z,101419.84
2018-09-29T04:36:15.618Z,101427.53
2018-09-29T04:41:19.036Z,101426.27
2018-09-29T04:46:22.491Z,101435.77
2018-09-29T04:51:25.940Z,101434.95
2018-09-29T04:56:29.523Z,101440.98
2018-09-29T05:01:33.007Z,101442.84
2018-09-29T05:06:36.500Z,101440.72
2018-09-29T05:11:39.924Z,101452.91
2018-09-29T05:16:43.361Z,101455.20
2018-09-29T05:21:46.824Z,101462.93
2018-09-29T05:26:50.240Z,101471.56
2018-09-29T05:31:54.699Z,101473.43
2018-09-29T05:36:58.114Z,101477.07
2018-09-29T05:42:01.606Z,101478.02
2018-09-29T05:47:05.054Z,101479.05
2018-09-29T05:52:08.543Z,101475.94
2018-09-29T05:57:11.974Z,101489.47
2018-09-29T06:02:15.473Z,101490.81
2018-09-29T06:07:18.978Z,101486.78
2018-09-29T06:12:22.418Z,101499.62
2018-09-29T06:17:25.888Z,101486.09
2018-09-29T06:22:29.373Z,101496.95
2018-09-29T06:27:33.069Z,101497.09
2018-09-29T06:32:36.553Z,101492.13
2018-09-29T06:37:39.973Z,101501.50
2018-09-29T06:42:43.514Z,101507.80
2018-09-29T06:47:47.088Z,101510.03
2018-09-29T06:52:50.574Z,101517.22
2018-09-29T06:57:54.124Z,101527.13
2018-09-29T07:02:57.692Z,101531.66
2018-09-29T07:08:01.192Z,101539.98
2018-09-29T07:13:04.692Z,101540.22
2018-09-29T07:18:08.156Z,101535.16
2018-09-29T07:23:11.701Z,101529.65
2018-09-29T07:28:15.122Z,101540.60
2018-09-29T07:33:18.549Z,101527.22
2018-09-29T07:38:22.005Z,101525.95
2018-09-29T07:43:25.441Z,101525.63
2018-09-29T07:48:28.897Z,101536.37
2018-09-29T07:53:32.374Z,101532.82
2018-09-29T07:58:35.817Z,101535.21
2018-09-29T08:03:39.249Z,101543.34
2018-09-29T08:08:42.714Z,101541.33
2018-09-29T08:13:46.177Z,101539.34
2018-09-29T08:18:49.606Z,101535.64
2018-09-29T08:23:53.025Z,101531.99
2018-09-29T08:28:56.465Z,101534.29
2018-09-29T08:33:59.941Z,101541.16
2018-09-29T08:39:04.204Z,101539.64
2018-09-29T08:44:07.709Z,101537.42
2018-09-29T08:49:11.211Z,101546.50
2018-09-29T08:54:14.623Z,101546.64
2018-09-29T08:59:18.026Z,101550.42
2018-09-29T09:04:21.463Z,101543.29
2018-09-29T09:09:24.992Z,101547.50
2018-09-29T09:14:28.391Z,101548.19
2018-09-29T09:19:31.898Z,101548.87
2018-09-29T09:24:35.345Z,101550.52
2018-09-29T09:29:38.800Z,101547.88
2018-09-29T09:34:42.274Z,101542.09
2018-09-29T09:39:45.740Z,101541.22
2018-09-29T09:44:49.195Z,101536.23
2018-09-29T09:49:52.638Z,101528.24
2018-09-29T09:54:56.080Z,101525.55
2018-09-29T09:59:59.506Z,101525.69
2018-09-29T10:05:03.006Z,101537.95
2018-09-29T10:10:06.746Z,101528.53
2018-09-29T10:15:10.371Z,101523.94
2018-09-29T10:20:13.815Z,101522.86
2018-09-29T10:25:19.316Z,101521.83
2018-09-29T10:30:22.801Z,101524.30
2018-09-29T10:35:26.255Z,101519.88
2018-09-29T10:40:29.705Z,101515.05
2018-09-29T10:45:33.144Z,101514.95
2018-09-29T10:50:37.495Z,101499.03
2018-09-29T10:55:40.932Z,101494.63
2018-09-29T11:00:44.364Z,101486.34
2018-09-29T11:05:47.782Z,101477.66
2018-09-29T11:10:51.206Z,101472.33
2018-09-29T11:15:54.611Z,101466.23
2018-09-29T11:20:58.115Z,101467.31
2018-09-29T11:26:01.484Z,101458.59
2018-09-29T11:31:04.900Z,101444.80
2018-09-29T11:36:08.310Z,101443.28
2018-09-29T11:41:11.967Z,101437.69
2018-09-29T11:46:15.394Z,101426.75
2018-09-29T11:51:18.805Z,101429.05
2018-09-29T11:56:22.320Z,101418.67
2018-09-29T12:01:25.955Z,101419.16
2018-09-29T12:06:29.373Z,101414.25
2018-09-29T12:11:32.825Z,101414.50
2018-09-29T12:16:36.404Z,101400.73
2018-09-29T12:21:39.842Z,101390.05
2018-09-29T12:26:43.279Z,101381.52
2018-09-29T12:31:46.795Z,101364.51
2018-09-29T12:36:50.312Z,101361.83
2018-09-29T12:41:53.892Z,101359.37
2018-09-29T12:46:57.328Z,101351.51
2018-09-29T12:52:01.731Z,101343.42
2018-09-29T12:57:05.240Z,101344.95
2018-09-29T13:02:08.710Z,101336.54
2018-09-29T13:07:12.322Z,101328.94
2018-09-29T13:12:16.037Z,101328.80
2018-09-29T13:17:23.351Z,101317.69
2018-09-29T13:28:04.958Z,101304.45
2018-09-29T13:33:08.546Z,101301.28
2018-09-29T13:38:12.018Z,101301.47
2018-09-29T13:43:15.474Z,101294.94
2018-09-29T13:48:18.958Z,101285.66
2018-09-29T13:53:22.450Z,101274.49
2018-09-29T13:58:25.915Z,101272.91
2018-09-29T14:03:29.345Z,101267.71
2018-09-29T14:08:32.860Z,101262.33
2018-09-29T14:13:36.266Z,101255.20
2018-09-29T14:18:39.712Z,101249.04
2018-09-29T14:23:43.167Z,101243.71
2018-09-29T14:28:46.601Z,101240.72
2018-09-29T14:33:50.069Z,101234.95
2018-09-29T14:38:53.941Z,101229.23
2018-09-29T14:43:57.472Z,101220.13
2018-09-29T14:49:00.952Z,101214.35
2018-09-29T14:54:04.460Z,101217.05
2018-09-29T14:59:07.943Z,101211.18
2018-09-29T15:04:11.454Z,101208.78
2018-09-29T15:09:14.881Z,101204.35
2018-09-29T15:14:18.356Z,101202.04
2018-09-29T15:19:22.528Z,101193.95
2018-09-29T15:24:25.959Z,101177.89
2018-09-29T15:29:29.401Z,101178.18
2018-09-29T15:34:32.850Z,101171.86
2018-09-29T15:39:36.317Z,101165.58
2018-09-29T15:44:39.783Z,101157.20
2018-09-29T15:49:43.273Z,101160.47
2018-09-29T15:54:46.721Z,101157.30
2018-09-29T15:59:50.201Z,101154.60
2018-09-29T16:04:53.714Z,101146.91
2018-09-29T16:09:57.136Z,101143.73
2018-09-29T16:15:00.783Z,101135.14
2018-09-29T16:20:04.270Z,101134.84
2018-09-29T16:25:07.721Z,101122.64
2018-09-29T16:30:11.304Z,101123.11
2018-09-29T16:35:14.736Z,101119.93
2018-09-29T16:40:18.165Z,101119.06
2018-09-29T16:45:21.622Z,101111.05
2018-09-29T16:50:25.077Z,101112.78
2018-09-29T16:55:28.571Z,101107.58
2018-09-29T17:00:32.017Z,101115.91
2018-09-29T17:05:35.467Z,101120.78
2018-09-29T17:10:38.880Z,101129.84
2018-09-29T17:15:42.353Z,101137.36
2018-09-29T17:20:45.762Z,101121.84
2018-09-29T17:25:49.374Z,101135.48
2018-09-29T17:30:52.846Z,101137.46
2018-09-29T17:35:56.304Z,101135.82
2018-09-29T17:40:59.767Z,101135.97
2018-09-29T17:46:03.193Z,101137.41
2018-09-29T17:51:06.646Z,101150.95
2018-09-29T17:56:10.204Z,101150.16
2018-09-29T18:01:13.669Z,101147.16
2018-09-29T18:06:17.157Z,101136.48
2018-09-29T18:11:20.680Z,101144.14
2018-09-29T18:16:24.138Z,101146.53
2018-09-29T18:21:27.585Z,101152.02
2018-09-29T18:26:31.128Z,101142.65
2018-09-29T18:31:34.641Z,101148.13
2018-09-29T18:36:38.161Z,101139.19
2018-09-29T18:41:41.585Z,101140.23
2018-09-29T18:46:44.972Z,101140.23
2018-09-29T18:51:48.409Z,101135.77
2018-09-29T18:56:51.900Z,101124.23
2018-09-29T19:01:55.339Z,101127.02
2018-09-29T19:06:59.365Z,101121.30
2018-09-29T19:12:03.187Z,101119.57
2018-09-29T19:17:07.017Z,101119.96
2018-09-29T19:22:10.743Z,101114.67
2018-09-29T19:27:14.265Z,101110.73
2018-09-29T19:32:17.773Z,101104.53
2018-09-29T19:37:21.540Z,101105.02
2018-09-29T20:04:55.410Z,101084.92
2018-09-29T20:09:58.866Z,101087.58
2018-09-29T20:15:02.469Z,101075.75
2018-09-29T20:20:06.661Z,101064.39
2018-09-29T20:59:09.413Z,101039.65
2018-09-29T21:04:12.924Z,101036.69
2018-09-29T21:09:16.440Z,101025.64
2018-09-29T21:14:19.925Z,101015.53
2018-09-29T21:19:23.357Z,101015.65
2018-09-29T21:24:26.901Z,101009.61
2018-09-29T21:29:30.344Z,101011.66
2018-09-29T21:34:33.797Z,101010.90
2018-09-29T21:39:37.299Z,101002.40
2018-09-29T21:44:40.735Z,100992.97
2018-09-29T21:49:44.177Z,100985.30
2018-09-29T21:54:47.837Z,100986.54
2018-09-29T21:59:51.281Z,100974.20
2018-09-29T22:04:54.785Z,100973.55
2018-09-29T22:09:58.198Z,100963.14
2018-09-29T22:15:01.700Z,100952.36
2018-09-29T22:20:06.341Z,100941.92
2018-09-29T22:25:09.822Z,100938.64
2018-09-29T22:35:15.843Z,100913.71
2018-09-29T22:40:19.302Z,100905.52
2018-09-29T22:45:22.789Z,100898.67
2018-09-29T22:50:26.532Z,100907.06
2018-09-29T22:55:30.018Z,100892.89
2018-09-29T23:00:33.477Z,100882.10
2018-09-29T23:05:36.961Z,100874.21
2018-09-29T23:10:40.414Z,100879.61
2018-09-29T23:15:43.854Z,100881.33
2018-09-29T23:20:47.428Z,100869.68
2018-09-29T23:25:50.861Z,100876.31
2018-09-29T23:30:54.281Z,100864.97
2018-09-29T23:35:57.785Z,100853.80
2018-09-29T23:41:01.415Z,100851.48
2018-09-29T23:46:04.978Z,100846.36
2018-09-29T23:51:08.656Z,100849.84
2018-09-29T23:56:12.163Z,100841.65
